createdAt,value
2019-05-17T00:00:20.530Z,93.67
2019-05-17T00:02:48.512Z,93.90
2019-05-17T00:05:17.824Z,94.34
2019-05-17T00:07:47.501Z,94.59
2019-05-17T00:10:17.391Z,94.97
2019-05-17T00:12:47.212Z,94.71
2019-05-17T00:15:17.048Z,94.14
2019-05-17T00:17:46.845Z,93.96
2019-05-17T00:20:17.257Z,93.64
2019-05-17T00:22:47.148Z,93.14
2019-05-17T00:25:16.771Z,93.27
2019-05-17T00:27:47.178Z,93.34
2019-05-17T00:30:14.570Z,93.21
2019-05-17T00:32:42.375Z,93.10
2019-05-17T00:35:10.677Z,93.18
2019-05-17T00:37:38.486Z,93.19
2019-05-17T00:40:07.626Z,93.54
2019-05-17T00:42:37.212Z,93.72
2019-05-17T00:45:06.770Z,93.73
2019-05-17T00:47:37.209Z,93.95
2019-05-17T00:50:07.545Z,93.99
2019-05-17T00:52:36.866Z,93.84
2019-05-17T00:55:06.761Z,93.56
2019-05-17T00:57:36.923Z,93.54
2019-05-17T01:00:04.875Z,93.58
2019-05-17T01:02:32.651Z,93.34
2019-05-17T01:05:00.436Z,93.56
2019-05-17T01:07:28.413Z,93.54
2019-05-17T01:09:56.622Z,93.52
2019-05-17T01:12:26.976Z,93.66
2019-05-17T01:14:54.403Z,93.94
2019-05-17T01:17:22.498Z,94.06
2019-05-17T01:19:50.466Z,93.54
2019-05-17T01:22:18.416Z,92.69
2019-05-17T01:24:46.511Z,92.60
2019-05-17T01:27:14.456Z,92.68
2019-05-17T01:29:42.272Z,92.14
2019-05-17T01:32:10.106Z,91.78
2019-05-17T01:34:38.067Z,91.48
2019-05-17T01:37:06.564Z,91.31
2019-05-17T01:39:34.395Z,91.63
2019-05-17T01:42:02.190Z,92.21
2019-05-17T01:44:30.109Z,92.20
2019-05-17T01:46:57.928Z,91.81
2019-05-17T01:49:27.072Z,91.94
2019-05-17T01:51:56.804Z,92.88
2019-05-17T01:54:26.880Z,92.25
2019-05-17T01:56:56.638Z,91.79
2019-05-17T01:59:26.646Z,91.77
2019-05-17T02:01:57.582Z,91.67
2019-05-17T02:04:26.814Z,91.70
2019-05-17T02:06:57.267Z,91.73
2019-05-17T02:09:34.898Z,92.36
2019-05-17T02:11:54.310Z,91.90
2019-05-17T02:14:22.308Z,91.67
2019-05-17T02:16:50.085Z,92.25
2019-05-17T02:19:17.862Z,92.90
2019-05-17T02:21:47.881Z,93.01
2019-05-17T02:24:16.918Z,93.10
2019-05-17T02:26:46.545Z,93.18
2019-05-17T02:29:14.585Z,93.37
2019-05-17T02:31:43.444Z,93.57
2019-05-17T02:34:14.110Z,93.89
2019-05-17T02:36:43.139Z,93.88
2019-05-17T02:39:13.135Z,93.69
2019-05-17T02:41:43.086Z,92.97
2019-05-17T02:44:13.097Z,92.99
2019-05-17T02:46:43.091Z,92.98
2019-05-17T02:49:13.439Z,92.66
2019-05-17T02:51:42.909Z,92.82
2019-05-17T02:54:12.999Z,92.33
2019-05-17T02:56:39.301Z,91.83
2019-05-17T02:59:07.294Z,91.64
2019-05-17T03:01:35.244Z,91.49
2019-05-17T03:04:04.073Z,91.43
2019-05-17T03:06:32.822Z,91.62
2019-05-17T03:09:03.510Z,91.40
2019-05-17T03:11:33.320Z,91.42
2019-05-17T03:14:03.664Z,91.30
2019-05-17T03:16:33.592Z,91.19
2019-05-17T03:19:03.781Z,92.04
2019-05-17T03:21:33.484Z,92.27
2019-05-17T03:24:02.874Z,92.42
2019-05-17T03:26:32.566Z,92.13
2019-05-17T03:29:02.878Z,92.40
2019-05-17T03:31:35.944Z,92.21
2019-05-17T03:34:06.721Z,92.61
2019-05-17T03:36:36.088Z,92.68
2019-05-17T03:39:03.043Z,92.26
2019-05-17T03:41:33.795Z,92.22
2019-05-17T03:44:03.168Z,92.66
2019-05-17T03:46:33.174Z,92.89
2019-05-17T03:49:03.491Z,92.52
2019-05-17T03:51:33.034Z,92.32
2019-05-17T03:54:02.453Z,91.92
2019-05-17T03:56:29.570Z,91.39
2019-05-17T03:58:57.373Z,91.17
2019-05-17T04:01:25.366Z,91.98
2019-05-17T04:03:53.235Z,91.55
2019-05-17T04:06:23.853Z,91.31
2019-05-17T04:08:52.777Z,90.68
2019-05-17T04:11:31.082Z,90.52
2019-05-17T04:13:53.513Z,89.95
2019-05-17T04:16:23.605Z,89.59
2019-05-17T04:18:49.816Z,88.92
2019-05-17T04:21:17.876Z,89.10
2019-05-17T04:23:45.665Z,89.55
2019-05-17T04:26:13.847Z,89.41
2019-05-17T04:28:44.149Z,89.30
2019-05-17T04:31:13.421Z,89.15
2019-05-17T04:33:42.873Z,88.95
2019-05-17T04:36:13.099Z,88.41
2019-05-17T04:38:43.477Z,88.04
2019-05-17T04:41:13.348Z,87.84
2019-05-17T04:43:42.496Z,87.30
2019-05-17T04:46:12.728Z,87.65
2019-05-17T04:48:43.512Z,87.17
2019-05-17T04:51:12.857Z,87.53
2019-05-17T04:53:43.040Z,88.47
2019-05-17T04:56:13.697Z,88.95
2019-05-17T04:58:42.667Z,88.38
2019-05-17T05:01:12.930Z,89.57
2019-05-17T05:03:39.377Z,89.74
2019-05-17T05:06:07.179Z,89.66
2019-05-17T05:08:34.979Z,88.67
2019-05-17T05:11:04.139Z,88.67
2019-05-17T05:13:33.310Z,87.45
2019-05-17T05:16:03.050Z,87.69
2019-05-17T05:18:33.781Z,87.33
2019-05-17T05:21:05.416Z,87.09
2019-05-17T05:23:33.201Z,86.77
2019-05-17T05:26:03.044Z,86.42
2019-05-17T05:28:31.767Z,85.73
2019-05-17T05:31:01.868Z,84.90
2019-05-17T05:33:29.461Z,84.77
2019-05-17T05:35:57.259Z,84.41
2019-05-17T05:38:25.073Z,84.41
2019-05-17T05:40:53.215Z,84.69
2019-05-17T05:43:22.583Z,84.01
2019-05-17T05:45:50.650Z,84.03
2019-05-17T05:48:18.487Z,84.84
2019-05-17T05:50:46.306Z,84.41
2019-05-17T05:53:14.137Z,84.91
2019-05-17T05:55:42.783Z,85.16
2019-05-17T05:58:12.082Z,84.70
2019-05-17T06:00:42.516Z,83.36
2019-05-17T06:03:12.094Z,83.85
2019-05-17T06:05:42.246Z,83.50
2019-05-17T06:08:12.255Z,82.67
2019-05-17T06:10:42.639Z,82.28
2019-05-17T06:13:09.498Z,81.93
2019-05-17T06:15:37.343Z,81.47
2019-05-17T06:18:05.191Z,81.48
2019-05-17T06:20:33.108Z,81.07
2019-05-17T06:23:02.558Z,80.53
2019-05-17T06:25:33.763Z,81.42
2019-05-17T06:28:01.543Z,81.17
2019-05-17T06:30:32.218Z,80.80
2019-05-17T06:32:59.288Z,79.45
2019-05-17T06:35:27.421Z,78.53
2019-05-17T06:37:55.270Z,78.60
2019-05-17T06:40:23.040Z,78.89
2019-05-17T06:42:52.537Z,78.80
2019-05-17T06:45:22.090Z,79.21
2019-05-17T06:47:51.867Z,78.96
2019-05-17T06:50:19.738Z,79.54
2019-05-17T06:52:47.543Z,77.78
2019-05-17T06:55:15.328Z,76.67
2019-05-17T06:57:43.615Z,77.06
2019-05-17T07:00:19.226Z,76.10
2019-05-17T07:02:41.917Z,76.20
2019-05-17T07:05:13.118Z,76.65
2019-05-17T07:07:40.965Z,77.45
2019-05-17T07:10:11.118Z,75.90
2019-05-17T07:12:54.124Z,75.57
2019-05-17T07:15:10.770Z,74.97
2019-05-17T07:17:39.970Z,74.15
2019-05-17T07:20:10.411Z,72.58
2019-05-17T07:22:40.721Z,72.49
2019-05-17T07:25:10.875Z,72.23
2019-05-17T07:27:42.663Z,71.50
2019-05-17T07:30:09.979Z,70.68
2019-05-17T07:32:40.261Z,70.33
2019-05-17T07:35:10.420Z,69.54
2019-05-17T07:37:39.689Z,69.41
2019-05-17T07:40:10.802Z,70.03
2019-05-17T07:42:39.713Z,71.40
2019-05-17T07:45:10.038Z,72.00
2019-05-17T07:47:40.127Z,71.46
2019-05-17T07:50:07.844Z,70.90
2019-05-17T07:52:35.664Z,69.45
2019-05-17T07:55:04.061Z,68.85
2019-05-17T07:57:31.922Z,68.36
2019-05-17T08:00:00.114Z,66.47
2019-05-17T08:02:30.462Z,65.24
2019-05-17T08:05:00.239Z,66.63
2019-05-17T08:07:27.452Z,66.75
2019-05-17T08:09:55.324Z,65.50
2019-05-17T08:12:23.197Z,64.59
2019-05-17T08:14:51.046Z,58.06
2019-05-17T08:17:19.816Z,57.17
2019-05-17T08:19:49.808Z,55.40
2019-05-17T08:22:20.008Z,49.56
2019-05-17T08:24:49.237Z,49.47
2019-05-17T08:27:17.037Z,49.70
2019-05-17T08:29:44.919Z,43.49
2019-05-17T08:32:12.694Z,38.83
2019-05-17T08:34:40.554Z,34.37
2019-05-17T08:37:09.495Z,30.89
2019-05-17T08:39:39.813Z,28.55
2019-05-17T08:42:09.630Z,23.58
2019-05-17T08:44:39.022Z,21.53
2019-05-17T08:47:06.645Z,20.49
2019-05-17T08:49:34.498Z,20.71
2019-05-17T08:52:02.337Z,18.77
2019-05-17T08:54:30.473Z,17.12
2019-05-17T08:57:00.522Z,15.96
2019-05-17T08:59:29.655Z,16.82
2019-05-17T09:01:59.968Z,19.49
2019-05-17T09:04:29.618Z,22.43
2019-05-17T09:06:57.065Z,26.31
2019-05-17T09:09:24.836Z,28.31
2019-05-17T09:11:52.630Z,31.12
2019-05-17T09:14:21.458Z,32.53
2019-05-17T09:16:50.462Z,31.55
2019-05-17T09:19:19.407Z,31.01
2019-05-17T09:21:47.311Z,34.87
2019-05-17T09:24:15.151Z,35.38
2019-05-17T09:26:42.917Z,34.63
2019-05-17T09:29:10.899Z,33.62
2019-05-17T09:31:40.379Z,36.54
2019-05-17T09:34:09.665Z,34.64
2019-05-17T09:36:37.550Z,33.74
2019-05-17T09:39:09.344Z,32.25
2019-05-17T09:41:37.034Z,31.04
2019-05-17T09:44:12.854Z,32.06
2019-05-17T09:46:34.567Z,34.48
2019-05-17T09:49:03.844Z,35.60
2019-05-17T09:51:31.661Z,35.72
2019-05-17T09:54:00.069Z,36.73
2019-05-17T09:56:30.178Z,38.56
2019-05-17T09:59:00.228Z,39.15
2019-05-17T10:01:27.473Z,38.65
2019-05-17T10:03:55.299Z,36.97
2019-05-17T10:06:23.085Z,36.77
2019-05-17T10:08:50.863Z,37.89
2019-05-17T10:11:20.305Z,38.56
2019-05-17T10:13:49.891Z,40.59
2019-05-17T10:16:20.310Z,41.64
2019-05-17T10:18:47.859Z,43.15
2019-05-17T10:21:15.700Z,43.17
2019-05-17T10:23:43.560Z,41.85
2019-05-17T10:26:11.412Z,40.47
2019-05-17T10:28:40.010Z,39.06
2019-05-17T10:31:11.640Z,35.19
2019-05-17T10:33:39.952Z,31.18
2019-05-17T10:36:07.532Z,31.08
2019-05-17T10:38:35.412Z,31.43
2019-05-17T10:41:10.174Z,32.63
2019-05-17T10:43:39.278Z,34.23
2019-05-17T10:46:07.301Z,36.08
2019-05-17T10:48:35.264Z,38.23
2019-05-17T10:51:05.768Z,39.54
2019-05-17T10:53:33.792Z,39.93
2019-05-17T10:56:01.667Z,41.13
2019-05-17T10:58:29.804Z,41.41
2019-05-17T11:00:57.750Z,42.11
2019-05-17T11:03:25.577Z,41.53
2019-05-17T11:05:53.385Z,41.99
2019-05-17T11:08:21.256Z,41.63
2019-05-17T11:10:50.198Z,41.61
2019-05-17T11:13:21.294Z,41.21
2019-05-17T11:15:49.133Z,40.21
2019-05-17T11:18:17.282Z,39.55
2019-05-17T11:20:45.286Z,35.56
2019-05-17T11:23:13.137Z,31.27
2019-05-17T11:25:45.400Z,26.41
2019-05-17T11:28:10.705Z,25.66
2019-05-17T11:30:38.516Z,25.96
2019-05-17T11:33:06.344Z,28.18
2019-05-17T11:35:34.212Z,27.78
2019-05-17T11:38:01.989Z,29.42
2019-05-17T11:40:30.069Z,30.07
2019-05-17T11:42:57.902Z,30.98
2019-05-17T11:45:29.089Z,32.14
2019-05-17T11:47:55.448Z,33.47
2019-05-17T11:50:23.349Z,34.42
2019-05-17T11:52:51.171Z,35.35
2019-05-17T11:55:19.009Z,34.87
2019-05-17T11:57:46.848Z,34.58
2019-05-17T12:00:16.672Z,36.50
2019-05-17T12:02:44.569Z,36.72
2019-05-17T12:05:12.656Z,36.97
2019-05-17T12:07:40.525Z,35.68
2019-05-17T12:10:08.744Z,31.90
2019-05-17T12:12:36.590Z,28.68
2019-05-17T12:15:04.812Z,26.59
2019-05-17T12:17:32.702Z,27.31
2019-05-17T12:20:00.472Z,26.33
2019-05-17T12:22:28.317Z,25.24
2019-05-17T12:24:56.180Z,23.97
2019-05-17T12:27:24.014Z,23.44
2019-05-17T12:29:51.886Z,24.82
2019-05-17T12:32:19.727Z,26.89
2019-05-17T12:34:47.582Z,30.51
2019-05-17T12:37:15.427Z,33.75
2019-05-17T12:39:43.243Z,33.94
2019-05-17T12:42:11.237Z,32.89
2019-05-17T12:44:39.134Z,29.38
2019-05-17T12:47:07.092Z,28.75
2019-05-17T12:49:34.895Z,30.15
2019-05-17T12:52:03.810Z,32.50
2019-05-17T12:54:31.618Z,33.79
2019-05-17T12:56:59.423Z,35.35
2019-05-17T12:59:27.187Z,37.22
2019-05-17T13:01:54.998Z,36.42
2019-05-17T13:04:22.753Z,36.74
2019-05-17T13:06:50.570Z,36.06
2019-05-17T13:09:18.408Z,36.28
2019-05-17T13:11:46.247Z,35.52
2019-05-17T13:14:14.123Z,30.67
2019-05-17T13:16:41.983Z,25.19
2019-05-17T13:19:09.753Z,24.81
2019-05-17T13:21:37.528Z,28.90
2019-05-17T13:24:05.408Z,33.37
2019-05-17T13:26:33.179Z,34.03
2019-05-17T13:29:01.126Z,36.26
2019-05-17T13:31:28.929Z,38.41
2019-05-17T13:33:56.738Z,40.52
2019-05-17T13:36:24.567Z,42.02
2019-05-17T13:38:52.463Z,44.01
2019-05-17T13:41:20.264Z,44.37
2019-05-17T13:43:48.213Z,45.77
2019-05-17T13:46:16.090Z,46.81
2019-05-17T13:48:43.883Z,46.79
2019-05-17T13:51:11.669Z,45.93
2019-05-17T13:53:39.491Z,44.61
2019-05-17T13:56:07.275Z,45.26
2019-05-17T13:58:35.093Z,44.97
2019-05-17T14:01:02.895Z,43.80
2019-05-17T14:03:30.683Z,42.39
2019-05-17T14:05:58.600Z,42.58
2019-05-17T14:08:26.388Z,42.05
2019-05-17T14:10:54.233Z,41.07
2019-05-17T14:13:22.102Z,42.35
2019-05-17T14:15:50.010Z,42.60
2019-05-17T14:18:17.845Z,44.52
2019-05-17T14:20:45.743Z,45.42
2019-05-17T14:23:13.548Z,45.07
2019-05-17T14:25:41.382Z,45.13
2019-05-17T14:28:11.311Z,44.24
2019-05-17T14:30:38.871Z,43.54
2019-05-17T14:33:06.666Z,43.87
2019-05-17T14:35:34.558Z,43.14
2019-05-17T14:38:02.397Z,42.71
2019-05-17T14:41:04.000Z,41.20
2019-05-17T14:43:00.071Z,42.03
2019-05-17T14:45:27.885Z,42.46
2019-05-17T14:47:55.706Z,43.19
2019-05-17T14:50:23.544Z,43.54
2019-05-17T14:52:51.610Z,43.76
2019-05-17T14:55:19.390Z,43.23
2019-05-17T14:57:47.237Z,42.95
2019-05-17T15:00:18.039Z,42.70
2019-05-17T15:02:45.852Z,43.70
2019-05-17T15:05:13.964Z,43.21
2019-05-17T15:07:41.760Z,43.51
2019-05-17T15:10:09.771Z,44.16
2019-05-17T15:12:37.586Z,45.75
2019-05-17T15:15:05.774Z,45.50
2019-05-17T15:17:35.244Z,45.23
2019-05-17T15:20:03.276Z,43.86
2019-05-17T15:22:31.131Z,43.10
2019-05-17T15:24:59.022Z,41.54
2019-05-17T15:27:26.965Z,42.27
2019-05-17T15:29:54.725Z,42.25
2019-05-17T15:32:22.500Z,41.51
2019-05-17T15:34:50.448Z,40.49
2019-05-17T15:37:18.214Z,39.67
2019-05-17T15:39:46.062Z,40.66
2019-05-17T15:42:13.900Z,41.36
2019-05-17T15:44:41.729Z,42.33
2019-05-17T15:47:09.821Z,42.49
2019-05-17T15:49:37.655Z,42.47
2019-05-17T15:52:05.464Z,42.69
2019-05-17T15:54:33.326Z,43.40
2019-05-17T15:57:01.238Z,44.31
2019-05-17T15:59:29.026Z,44.08
2019-05-17T16:01:56.862Z,43.45
2019-05-17T16:04:24.679Z,42.47
2019-05-17T16:06:52.482Z,41.77
2019-05-17T16:09:20.421Z,41.04
2019-05-17T16:11:48.230Z,40.63
2019-05-17T16:14:16.008Z,40.99
2019-05-17T16:16:43.790Z,41.05
2019-05-17T16:19:11.589Z,42.37
2019-05-17T16:21:39.509Z,42.90
2019-05-17T16:24:07.342Z,42.82
2019-05-17T16:26:35.159Z,43.10
2019-05-17T16:29:03.108Z,43.94
2019-05-17T16:31:31.030Z,44.41
2019-05-17T16:33:58.909Z,44.05
2019-05-17T16:36:26.720Z,42.95
2019-05-17T16:38:54.560Z,43.28
2019-05-17T16:41:22.425Z,43.11
2019-05-17T16:43:50.251Z,43.36
2019-05-17T16:46:18.194Z,43.67
2019-05-17T16:48:46.035Z,44.03
2019-05-17T16:51:13.846Z,44.31
2019-05-17T16:53:41.989Z,44.63
2019-05-17T16:56:09.836Z,44.75
2019-05-17T16:58:37.720Z,45.11
2019-05-17T17:01:05.675Z,45.33
2019-05-17T17:03:43.770Z,45.10
2019-05-17T17:06:03.397Z,44.95
2019-05-17T17:08:31.366Z,45.00
2019-05-17T17:10:59.156Z,45.36
2019-05-17T17:13:33.036Z,45.75
2019-05-17T17:15:56.773Z,45.54
2019-05-17T17:18:24.615Z,46.06
2019-05-17T17:20:52.468Z,46.34
2019-05-17T17:23:20.353Z,46.75
2019-05-17T17:25:48.122Z,46.67
2019-05-17T17:28:15.969Z,46.84
2019-05-17T17:30:43.755Z,46.75
2019-05-17T17:33:11.658Z,46.94
2019-05-17T17:35:39.500Z,46.95
2019-05-17T17:38:07.349Z,47.21
2019-05-17T17:40:35.364Z,47.47
2019-05-17T17:43:03.263Z,47.32
2019-05-17T17:45:31.092Z,47.48
2019-05-17T17:47:58.893Z,47.28
2019-05-17T17:50:26.763Z,47.45
2019-05-17T17:52:54.725Z,47.56
2019-05-17T17:55:22.551Z,47.79
2019-05-17T17:57:50.622Z,48.25
2019-05-17T18:00:21.427Z,48.26
2019-05-17T18:02:49.397Z,48.45
2019-05-17T18:05:17.537Z,49.00
2019-05-17T18:07:45.375Z,48.84
2019-05-17T18:10:25.756Z,49.04
2019-05-17T18:12:53.587Z,49.56
2019-05-17T18:15:39.218Z,49.71
2019-05-17T18:18:07.048Z,50.12
2019-05-17T18:20:35.095Z,50.49
2019-05-17T18:23:03.435Z,50.90
2019-05-17T18:25:31.295Z,51.05
2019-05-17T18:27:59.136Z,51.11
2019-05-17T18:30:27.051Z,51.35
2019-05-17T18:32:54.863Z,51.76
2019-05-17T18:35:22.715Z,52.02
2019-05-17T18:37:50.498Z,52.49
2019-05-17T18:40:18.441Z,53.02
2019-05-17T18:42:46.225Z,53.31
2019-05-17T18:45:14.479Z,53.48
2019-05-17T18:47:42.323Z,53.73
2019-05-17T18:50:12.269Z,53.77
2019-05-17T18:52:40.136Z,53.97
2019-05-17T18:55:08.501Z,54.61
2019-05-17T18:57:36.455Z,54.92
2019-05-17T19:00:05.377Z,55.72
2019-05-17T19:02:33.177Z,56.13
2019-05-17T19:05:00.989Z,56.91
2019-05-17T19:07:28.785Z,57.33
2019-05-17T19:09:56.605Z,57.91
2019-05-17T19:12:24.424Z,58.45
2019-05-17T19:14:52.346Z,58.80
2019-05-17T19:17:20.122Z,59.28
2019-05-17T19:19:47.939Z,59.88
2019-05-17T19:22:15.769Z,60.29
2019-05-17T19:24:43.637Z,60.76
2019-05-17T19:27:11.486Z,61.18
2019-05-17T19:29:39.562Z,61.41
2019-05-17T19:32:07.392Z,61.60
2019-05-17T19:34:35.182Z,62.39
2019-05-17T19:37:03.143Z,62.41
2019-05-17T19:39:30.925Z,62.82
2019-05-17T19:41:58.773Z,63.16
2019-05-17T19:44:26.599Z,63.58
2019-05-17T19:46:54.547Z,64.16
2019-05-17T19:49:22.374Z,64.44
2019-05-17T19:51:50.249Z,64.87
2019-05-17T19:54:18.071Z,65.21
2019-05-17T19:56:45.855Z,65.48
2019-05-17T19:59:13.661Z,65.88
2019-05-17T20:01:41.496Z,66.40
2019-05-17T20:04:09.277Z,66.58
2019-05-17T20:06:37.086Z,66.68
2019-05-17T20:09:05.680Z,66.86
2019-05-17T20:11:34.689Z,67.28
2019-05-17T20:14:02.717Z,67.77
2019-05-17T20:16:30.547Z,67.87
2019-05-17T20:18:58.494Z,68.11
2019-05-17T20:21:26.314Z,68.35
2019-05-17T20:23:54.263Z,68.82
2019-05-17T20:26:22.069Z,69.08
2019-05-17T20:28:49.931Z,69.44
2019-05-17T20:31:17.795Z,69.64
2019-05-17T20:33:45.596Z,69.90
2019-05-17T20:36:13.406Z,70.06
2019-05-17T20:38:41.306Z,70.37
2019-05-17T20:41:09.122Z,70.59
2019-05-17T20:43:36.901Z,70.84
2019-05-17T20:46:04.807Z,71.61
2019-05-17T20:48:32.688Z,71.58
2019-05-17T20:51:00.675Z,71.74
2019-05-17T20:53:28.640Z,71.91
2019-05-17T20:55:56.444Z,72.39
2019-05-17T20:58:25.098Z,72.65
2019-05-17T21:00:52.912Z,72.99
2019-05-17T21:03:20.740Z,73.26
2019-05-17T21:05:48.618Z,73.28
2019-05-17T21:08:16.562Z,73.80
2019-05-17T21:10:44.312Z,74.07
2019-05-17T21:13:12.172Z,74.32
2019-05-17T21:15:47.459Z,74.43
2019-05-17T21:18:09.637Z,74.73
2019-05-17T21:20:37.463Z,74.76
2019-05-17T21:23:05.406Z,74.82
2019-05-17T21:25:33.172Z,75.53
2019-05-17T21:28:01.036Z,75.91
2019-05-17T21:30:28.849Z,76.08
2019-05-17T21:32:56.719Z,76.07
2019-05-17T21:35:24.501Z,76.48
2019-05-17T21:37:52.363Z,76.64
2019-05-17T21:40:20.193Z,76.93
2019-05-17T21:42:48.006Z,77.33
2019-05-17T21:45:16.140Z,77.34
2019-05-17T21:47:44.268Z,77.50
2019-05-17T21:50:12.229Z,77.54
2019-05-17T21:52:40.175Z,77.63
2019-05-17T21:55:08.190Z,77.59
2019-05-17T21:57:36.175Z,77.49
2019-05-17T22:00:09.991Z,77.12
2019-05-17T22:02:37.923Z,77.56
2019-05-17T22:05:06.009Z,78.00
2019-05-17T22:07:33.855Z,77.69
2019-05-17T22:10:01.796Z,77.82
2019-05-17T22:12:31.381Z,78.07
2019-05-17T22:14:59.192Z,78.50
2019-05-17T22:17:27.003Z,78.57
2019-05-17T22:19:54.814Z,78.53
2019-05-17T22:22:22.598Z,78.79
2019-05-17T22:24:50.450Z,78.84
2019-05-17T22:27:18.241Z,78.84
2019-05-17T22:29:46.065Z,78.95
2019-05-17T22:32:13.882Z,79.10
2019-05-17T22:34:41.654Z,79.16
2019-05-17T22:37:09.541Z,79.15
2019-05-17T22:39:37.335Z,79.40
2019-05-17T22:42:05.131Z,79.54
2019-05-17T22:44:32.933Z,80.02
2019-05-17T22:47:00.845Z,79.90
2019-05-17T22:49:28.739Z,79.92
2019-05-17T22:51:56.538Z,80.34
2019-05-17T22:54:24.873Z,80.58
2019-05-17T22:56:52.679Z,80.59
2019-05-17T22:59:20.469Z,80.71
2019-05-17T23:01:48.253Z,80.79
2019-05-17T23:04:16.042Z,80.84
2019-05-17T23:06:43.852Z,81.23
2019-05-17T23:09:11.631Z,81.72
2019-05-17T23:11:39.449Z,81.59
2019-05-17T23:14:07.239Z,81.51
2019-05-17T23:16:50.255Z,81.43
2019-05-17T23:19:10.670Z,81.41
2019-05-17T23:21:38.612Z,81.60
2019-05-17T23:24:06.771Z,81.98
2019-05-17T23:26:35.389Z,81.97
2019-05-17T23:29:03.418Z,81.97
2019-05-17T23:31:31.243Z,82.76
2019-05-17T23:33:59.064Z,82.52
2019-05-17T23:36:26.892Z,82.81
2019-05-17T23:38:54.714Z,82.66
2019-05-17T23:41:22.602Z,82.86
2019-05-17T23:43:52.019Z,82.60
2019-05-17T23:46:19.882Z,82.63
2019-05-17T23:48:47.648Z,82.55
2019-05-17T23:51:15.573Z,83.24
2019-05-17T23:53:43.385Z,83.39
2019-05-17T23:56:11.205Z,83.18
2019-05-17T23:58:38.997Z,83.23
